Time;durP1;ratioP1;P1;durP2;ratioP2;P2;SDS_P1;SDS_P2;PMS_P1;PMS_P2;Temp;Humidity;BMP_temperature;BMP_pressure;BME280_temperature;BME280_humidity;BME280_pressure;Samples;Min_cycle;Max_cycle;Signal;HPM_P1;HPM_P2
2021/04/02 00:00:09;;;;;;;17.48;4.53;;;;;;;16.83;41.95;102999.94;4993163;28;20358;-76
2021/04/02 00:02:35;;;;;;;17.60;4.35;;;;;;;16.60;42.64;102995.31;4993386;28;20053;-77
2021/04/02 00:05:01;;;;;;;20.13;5.10;;;;;;;16.87;42.01;103005.72;4993260;28;20058;-77
2021/04/02 00:07:26;;;;;;;12.95;4.32;;;;;;;16.63;42.66;102987.28;4993315;28;20061;-77
2021/04/02 00:09:52;;;;;;;25.65;6.13;;;;;;;16.67;42.37;102989.44;4993238;28;20038;-76
2021/04/02 00:12:17;;;;;;;20.58;5.72;;;;;;;16.68;42.46;102991.06;4993115;28;20061;-77
2021/04/02 00:14:43;;;;;;;20.77;6.72;;;;;;;16.56;42.52;102994.28;4993076;28;20034;-77
2021/04/02 00:17:09;;;;;;;15.23;5.32;;;;;;;16.32;42.93;102991.56;4993007;28;20025;-80
2021/04/02 00:19:34;;;;;;;13.32;4.28;;;;;;;16.07;43.35;102993.56;4992961;28;20031;-76
2021/04/02 00:22:00;;;;;;;14.32;4.63;;;;;;;16.18;43.21;102990.69;4992884;28;20174;-76
2021/04/02 00:24:25;;;;;;;17.23;6.07;;;;;;;16.16;43.24;102993.72;4992995;28;20038;-76
2021/04/02 00:26:51;;;;;;;14.80;5.95;;;;;;;16.30;42.67;102997.41;4992814;28;20073;-76
2021/04/02 00:29:16;;;;;;;13.10;4.18;;;;;;;16.33;42.75;102998.75;4991659;28;20050;-76
2021/04/02 00:31:42;;;;;;;14.70;5.13;;;;;;;16.10;43.27;102986.66;4993071;28;20030;-76
2021/04/02 00:34:08;;;;;;;21.60;4.70;;;;;;;16.16;43.21;102984.63;4992758;28;20481;-76
2021/04/02 00:36:34;;;;;;;18.55;5.40;;;;;;;16.36;42.86;102981.59;4992766;28;20029;-77
2021/04/02 00:38:59;;;;;;;11.98;5.03;;;;;;;16.63;42.40;102975.41;4993023;28;20445;-78
2021/04/02 00:41:25;;;;;;;23.20;5.93;;;;;;;16.53;42.35;102992.94;4992561;28;20493;-77
2021/04/02 00:43:51;;;;;;;17.83;6.25;;;;;;;16.16;43.02;102988.22;4992518;28;20089;-83
2021/04/02 00:46:20;;;;;;;13.45;5.82;;;;;;;16.43;42.45;102995.84;4992557;28;20033;-76
2021/04/02 00:48:47;;;;;;;17.38;5.20;;;;;;;16.35;42.72;102988.25;4992478;28;20038;-76
2021/04/02 00:51:18;;;;;;;16.90;4.63;;;;;;;16.23;42.89;102998.88;4992472;28;20031;-76
2021/04/02 00:53:45;;;;;;;20.88;4.95;;;;;;;16.16;43.18;103012.22;4992561;28;20034;-76
2021/04/02 00:56:13;;;;;;;17.33;5.00;;;;;;;15.98;43.67;103000.88;4992568;28;20034;-76
2021/04/02 00:58:40;;;;;;;14.63;4.80;;;;;;;15.92;43.74;103010.31;4992394;28;20030;-76
2021/04/02 01:01:08;;;;;;;14.50;5.82;;;;;;;16.14;43.17;103004.25;4992344;28;20046;-76
2021/04/02 01:03:34;;;;;;;16.05;6.38;;;;;;;16.18;43.34;103016.34;4992637;28;20080;-77
2021/04/02 01:06:03;;;;;;;13.82;5.63;;;;;;;15.98;43.49;103008.31;4989913;28;20077;-76
2021/04/02 01:08:32;;;;;;;19.50;5.32;;;;;;;16.19;43.22;103001.44;4990528;28;20077;-77
2021/04/02 01:11:02;;;;;;;18.45;5.75;;;;;;;16.43;42.38;103001.38;4992354;28;20026;-76
2021/04/02 01:13:39;;;;;;;15.25;5.63;;;;;;;16.35;42.35;103007.56;4991069;28;20030;-76
2021/04/02 01:16:11;;;;;;;18.42;5.35;;;;;;;16.21;42.94;103001.94;4992143;28;20105;-76
2021/04/02 01:18:57;;;;;;;19.75;6.55;;;;;;;16.40;42.80;103010.25;4990982;28;20029;-76
2021/04/02 01:21:51;;;;;;;14.95;4.97;;;;;;;16.69;42.09;102999.06;4992176;28;20061;-76
2021/04/02 01:24:23;;;;;;;18.20;6.05;;;;;;;16.57;42.35;103004.22;4990944;28;20092;-77
2021/04/02 01:27:04;;;;;;;16.65;4.35;;;;;;;16.55;42.32;103010.03;4992148;28;20481;-76
2021/04/02 01:29:54;;;;;;;18.75;5.60;;;;;;;16.50;42.56;103006.53;4991071;28;20055;-84
2021/04/02 01:32:25;;;;;;;17.30;4.78;;;;;;;16.50;42.38;103003.75;4992283;28;20389;-76
2021/04/02 01:35:00;;;;;;;16.77;6.28;;;;;;;16.33;42.63;103015.31;4992243;28;20516;-76
2021/04/02 01:37:40;;;;;;;12.18;5.07;;;;;;;16.26;42.98;103012.09;4992539;28;20038;-82
2021/04/02 01:40:07;;;;;;;;;;;;;;;16.21;42.78;103014.91;4992595;28;20680;-76
2021/04/02 01:42:37;;;;;;;16.83;4.25;;;;;;;16.28;42.56;103007.09;4992001;28;20020;-76
2021/04/02 01:45:06;;;;;;;16.23;4.57;;;;;;;16.17;42.65;103008.34;4992213;28;20453;-76
2021/04/02 01:47:33;;;;;;;14.70;4.10;;;;;;;16.23;42.50;103009.91;4991812;28;20482;-82
2021/04/02 01:50:00;;;;;;;16.60;4.97;;;;;;;16.40;42.20;103013.00;4990860;28;20037;-89
2021/04/02 01:52:28;;;;;;;15.73;4.82;;;;;;;16.22;42.38;103008.28;4992213;28;20088;-76
2021/04/02 01:54:54;;;;;;;18.13;4.57;;;;;;;16.44;42.23;103014.03;4991950;28;20034;-76
2021/04/02 01:57:22;;;;;;;21.05;5.10;;;;;;;16.18;42.69;103015.53;4991975;28;20486;-76
2021/04/02 01:59:48;;;;;;;16.48;5.03;;;;;;;16.45;42.14;103021.19;4992110;28;20465;-76
2021/04/02 02:02:16;;;;;;;11.32;4.00;;;;;;;16.19;42.92;103015.22;4991649;28;20057;-76
2021/04/02 02:04:43;;;;;;;15.35;4.75;;;;;;;15.99;43.56;103013.53;4992083;28;20462;-76
2021/04/02 02:07:09;;;;;;;13.35;4.50;;;;;;;16.10;42.91;103017.00;4992057;28;20077;-76
2021/04/02 02:09:40;;;;;;;18.60;5.47;;;;;;;16.32;42.31;103021.94;4991967;28;20059;-76
2021/04/02 02:12:10;;;;;;;26.17;6.13;;;;;;;16.30;42.48;103013.13;4991874;28;20057;-76
2021/04/02 02:14:38;;;;;;;20.92;6.35;;;;;;;16.30;42.63;103024.16;4991820;28;20030;-89
2021/04/02 02:17:07;;;;;;;16.65;4.45;;;;;;;16.29;42.61;103012.31;4992129;28;20030;-76
2021/04/02 02:19:37;;;;;;;18.70;4.72;;;;;;;16.33;42.34;103018.91;4992126;28;20425;-76
2021/04/02 02:22:07;;;;;;;21.65;6.88;;;;;;;16.28;42.53;103024.47;4995476;28;20034;-77
2021/04/02 02:24:34;;;;;;;19.70;5.57;;;;;;;16.42;42.34;103019.03;4995619;28;20481;-76
2021/04/02 02:27:01;;;;;;;14.07;4.30;;;;;;;16.47;41.94;103013.44;4995322;28;20033;-77
2021/04/02 02:29:27;;;;;;;18.17;5.35;;;;;;;16.21;42.65;103020.44;4992532;28;20034;-76
2021/04/02 02:31:52;;;;;;;14.63;4.25;;;;;;;16.18;43.10;103015.53;4997467;28;20125;-76
2021/04/02 02:34:18;;;;;;;18.55;5.47;;;;;;;16.12;43.08;103020.28;4995216;28;20027;-76
2021/04/02 02:36:44;;;;;;;21.58;4.22;;;;;;;16.24;42.70;103019.84;4994512;28;20034;-77
2021/04/02 02:39:15;;;;;;;15.27;3.90;;;;;;;16.32;42.65;103017.25;4994883;28;20408;-76
2021/04/02 02:41:43;;;;;;;15.00;3.85;;;;;;;16.36;42.52;103011.94;4993865;28;20565;-76
2021/04/02 02:44:10;;;;;;;26.10;5.43;;;;;;;16.47;42.52;103018.13;4995287;28;20073;-77
2021/04/02 02:46:36;;;;;;;23.05;5.40;;;;;;;16.20;43.10;103014.09;4995131;28;20034;-76
2021/04/02 02:49:08;;;;;;;17.15;5.05;;;;;;;16.32;42.70;103025.53;4994537;28;20574;-76
2021/04/02 02:51:36;;;;;;;14.48;5.32;;;;;;;16.38;42.26;103016.03;4995184;28;20076;-77
2021/04/02 02:54:05;;;;;;;16.95;5.05;;;;;;;16.34;42.49;103017.78;4994904;28;20041;-76
2021/04/02 02:56:33;;;;;;;17.37;5.27;;;;;;;16.42;42.36;103018.22;4994810;28;20034;-76
2021/04/02 02:59:02;;;;;;;17.70;4.93;;;;;;;15.95;43.48;103020.75;4994694;28;20105;-77
2021/04/02 03:01:31;;;;;;;13.40;3.83;;;;;;;16.18;43.28;103026.56;4994534;28;20034;-76
2021/04/02 03:03:57;;;;;;;18.38;4.70;;;;;;;16.27;42.74;103025.59;4994507;28;20030;-76
2021/04/02 03:06:25;;;;;;;10.48;5.03;;;;;;;16.21;43.13;103028.72;4994500;28;20030;-77
2021/04/02 03:08:54;;;;;;;14.18;4.65;;;;;;;16.32;42.98;103021.94;4994523;28;20034;-78
2021/04/02 03:11:22;;;;;;;16.02;4.53;;;;;;;16.40;42.70;103029.56;4994670;28;20397;-76
2021/04/02 03:13:49;;;;;;;17.15;5.60;;;;;;;16.31;42.93;103023.03;4994455;28;20027;-76
2021/04/02 03:16:16;;;;;;;14.25;5.95;;;;;;;16.51;42.42;103025.53;4994445;28;20039;-76
2021/04/02 03:18:46;;;;;;;12.32;5.05;;;;;;;16.50;42.39;103023.91;4994183;28;20034;-76
2021/04/02 03:21:13;;;;;;;17.65;5.05;;;;;;;16.46;42.06;103011.78;4994172;28;20039;-76
2021/04/02 03:23:42;;;;;;;15.57;5.13;;;;;;;16.74;41.60;103029.38;4994352;28;20037;-77
2021/04/02 03:26:08;;;;;;;11.63;4.68;;;;;;;16.56;42.21;103019.94;4994430;28;20416;-76
2021/04/02 03:28:35;;;;;;;20.52;4.95;;;;;;;16.51;42.35;103024.72;4994075;28;20556;-77
2021/04/02 03:31:01;;;;;;;7.72;4.03;;;;;;;16.42;42.46;103021.81;4994047;28;20065;-76
2021/04/02 03:33:30;;;;;;;13.45;4.20;;;;;;;16.34;42.65;103019.72;4994176;28;20065;-76
2021/04/02 03:36:00;;;;;;;16.20;5.72;;;;;;;16.28;42.07;103020.91;4994128;28;20508;-77
2021/04/02 03:38:31;;;;;;;17.65;5.72;;;;;;;16.23;42.64;103023.72;4993977;28;20026;-77
2021/04/02 03:40:59;;;;;;;16.45;4.88;;;;;;;16.35;42.55;103015.84;4993859;28;20030;-77
2021/04/02 03:43:28;;;;;;;16.13;4.47;;;;;;;16.41;42.49;103011.06;4993785;28;20073;-76
2021/04/02 03:45:55;;;;;;;9.52;4.35;;;;;;;16.45;41.58;103021.19;4993830;28;20038;-76
2021/04/02 03:48:24;;;;;;;14.82;4.25;;;;;;;16.46;41.10;103022.00;4993703;28;20113;-76
2021/04/02 03:50:56;;;;;;;14.20;4.13;;;;;;;15.97;42.13;103017.72;4993645;28;20432;-77
2021/04/02 03:53:28;;;;;;;11.30;4.90;;;;;;;16.27;41.45;103024.78;4993884;28;20034;-76
2021/04/02 03:55:57;;;;;;;15.50;3.70;;;;;;;16.22;41.32;103019.31;4993590;28;20030;-76
2021/04/02 03:58:24;;;;;;;11.30;3.67;;;;;;;16.13;41.17;103018.34;4993698;28;20392;-76
2021/04/02 04:00:55;;;;;;;13.90;4.18;;;;;;;16.13;41.27;103021.91;4993523;28;20035;-76
2021/04/02 04:03:22;;;;;;;12.25;4.20;;;;;;;16.01;41.57;103019.56;4993444;28;20056;-76
2021/04/02 04:05:51;;;;;;;16.45;4.00;;;;;;;16.24;41.42;103019.84;4993522;28;20400;-90
2021/04/02 04:08:19;;;;;;;17.25;4.80;;;;;;;16.28;41.28;103021.72;4993516;28;20057;-76
2021/04/02 04:10:47;;;;;;;8.95;2.95;;;;;;;15.75;42.05;103019.06;4993386;28;20038;-78
2021/04/02 04:13:18;;;;;;;12.57;4.75;;;;;;;15.96;41.52;103027.91;4993483;28;20436;-76
2021/04/02 04:15:44;;;;;;;13.38;4.85;;;;;;;15.95;41.52;103039.25;4993321;28;20470;-76
2021/04/02 04:18:12;;;;;;;18.25;3.28;;;;;;;15.98;41.47;103033.13;4993222;28;20105;-76
2021/04/02 04:20:41;;;;;;;16.52;3.53;;;;;;;15.80;41.62;103032.78;4991701;28;20034;-76
2021/04/02 04:23:08;;;;;;;10.27;3.97;;;;;;;15.91;41.44;103039.00;4993094;28;20033;-85
2021/04/02 04:25:34;;;;;;;12.27;4.20;;;;;;;16.00;41.02;103037.22;4993072;28;20385;-76
2021/04/02 04:28:02;;;;;;;12.65;3.55;;;;;;;16.05;40.80;103044.63;4993105;28;20113;-88
2021/04/02 04:30:29;;;;;;;13.25;5.22;;;;;;;16.03;41.07;103052.38;4993044;28;20028;-76
2021/04/02 04:32:57;;;;;;;13.13;4.68;;;;;;;15.65;42.14;103049.50;4991835;28;20023;-76
2021/04/02 04:35:25;;;;;;;12.32;4.03;;;;;;;15.90;41.52;103053.91;4992781;28;20034;-76
2021/04/02 04:37:51;;;;;;;10.23;4.05;;;;;;;16.07;41.16;103057.00;4992909;28;20478;-89
2021/04/02 04:40:23;;;;;;;15.93;4.85;;;;;;;15.94;41.18;103060.47;4992817;28;20026;-82
2021/04/02 04:42:48;;;;;;;15.80;4.75;;;;;;;16.06;40.86;103062.81;4992272;28;20078;-76
2021/04/02 04:45:21;;;;;;;11.95;4.07;;;;;;;15.95;40.76;103056.59;4991335;28;20072;-76
2021/04/02 04:47:46;;;;;;;12.23;3.80;;;;;;;16.15;40.74;103062.97;4992605;28;20037;-76
2021/04/02 04:50:13;;;;;;;10.63;3.78;;;;;;;15.78;41.58;103059.81;4992627;28;20022;-76
2021/04/02 04:52:53;;;;;;;12.70;4.05;;;;;;;15.72;41.13;103069.28;4992682;28;20036;-77
2021/04/02 04:55:20;;;;;;;10.50;4.07;;;;;;;16.09;40.41;103076.81;4992582;28;20042;-76
2021/04/02 04:57:50;;;;;;;11.75;3.63;;;;;;;16.22;40.30;103068.97;4992376;28;20052;-76
2021/04/02 05:00:17;;;;;;;13.45;5.80;;;;;;;16.06;40.40;103074.66;4991342;28;20030;-89
2021/04/02 05:02:45;;;;;;;11.32;3.75;;;;;;;16.18;39.93;103077.03;4992664;28;20026;-76
2021/04/02 05:05:36;;;;;;;11.85;4.53;;;;;;;15.95;39.54;103075.91;4992395;28;20042;-76
2021/04/02 05:08:05;;;;;;;11.63;4.07;;;;;;;15.88;39.40;103072.69;4991576;28;20390;-76
2021/04/02 05:10:31;;;;;;;10.73;4.57;;;;;;;16.04;39.30;103085.19;4992523;28;20030;-77
2021/04/02 05:12:58;;;;;;;13.82;4.70;;;;;;;16.08;39.32;103075.19;4992454;28;20023;-76
2021/04/02 05:15:26;;;;;;;10.35;4.55;;;;;;;15.55;40.27;103093.63;4992432;28;20030;-76
2021/04/02 05:17:52;;;;;;;15.75;5.38;;;;;;;16.17;39.25;103093.84;4992505;28;20030;-76
2021/04/02 05:20:20;;;;;;;18.20;5.20;;;;;;;16.08;39.13;103094.50;4992294;28;20391;-76
2021/04/02 05:22:46;;;;;;;9.05;3.80;;;;;;;16.02;39.43;103095.69;4992559;28;20065;-76
2021/04/02 05:25:12;;;;;;;9.35;4.07;;;;;;;15.86;39.33;103101.63;4992350;28;20034;-87
2021/04/02 05:27:38;;;;;;;8.50;3.95;;;;;;;15.87;39.14;103101.38;4992573;28;20051;-89
2021/04/02 05:30:07;;;;;;;15.18;5.03;;;;;;;15.85;39.16;103103.56;4992419;28;20221;-76
2021/04/02 05:32:32;;;;;;;12.33;5.43;;;;;;;16.00;38.78;103108.91;4992284;28;20038;-76
2021/04/02 05:34:58;;;;;;;12.20;6.85;;;;;;;16.30;38.06;103109.69;4992198;28;20030;-76
2021/04/02 05:37:23;;;;;;;9.77;4.70;;;;;;;16.13;38.80;103117.63;4992654;28;20027;-77
2021/04/02 05:39:49;;;;;;;8.38;5.30;;;;;;;15.87;38.91;103117.06;4992298;28;20481;-76
2021/04/02 05:42:22;;;;;;;8.82;5.57;;;;;;;15.89;38.49;103123.13;4991873;28;20042;-76
2021/04/02 05:44:49;;;;;;;17.80;6.63;;;;;;;16.23;38.08;103131.28;4992310;28;20101;-89
2021/04/02 05:47:17;;;;;;;15.05;6.85;;;;;;;16.20;38.39;103126.38;4992158;28;20030;-90
2021/04/02 05:49:44;;;;;;;11.43;6.03;;;;;;;15.96;39.13;103131.88;4992145;28;20115;-76
2021/04/02 05:52:11;;;;;;;17.75;7.05;;;;;;;16.02;38.69;103128.78;4992195;28;20106;-87
2021/04/02 05:54:40;;;;;;;18.45;7.63;;;;;;;16.28;37.89;103129.31;4992358;28;20390;-77
2021/04/02 05:57:08;;;;;;;11.48;5.32;;;;;;;16.01;38.35;103124.34;4994645;28;20089;-76
2021/04/02 05:59:35;;;;;;;8.73;4.28;;;;;;;15.70;39.42;103140.38;4995667;28;20036;-77
2021/04/02 06:02:01;;;;;;;12.20;4.38;;;;;;;16.03;38.61;103135.13;4995724;28;20069;-76
2021/04/02 06:04:29;;;;;;;10.70;4.75;;;;;;;16.09;38.79;103140.25;4995770;28;20030;-76
2021/04/02 06:06:56;;;;;;;9.52;3.97;;;;;;;15.68;39.03;103147.28;4995649;28;20038;-76
2021/04/02 06:09:24;;;;;;;15.80;4.35;;;;;;;15.54;39.47;103144.34;4995734;28;20026;-76
2021/04/02 06:11:49;;;;;;;7.97;3.80;;;;;;;15.62;39.06;103143.75;4995492;28;20031;-76
2021/04/02 06:14:15;;;;;;;8.63;3.10;;;;;;;15.97;38.24;103144.53;4995609;28;20392;-76
2021/04/02 06:16:50;;;;;;;10.80;4.28;;;;;;;15.89;38.71;103140.50;4994038;28;20069;-75
2021/04/02 06:19:16;;;;;;;9.07;3.38;;;;;;;15.68;39.42;103147.28;4995584;28;20109;-88
2021/04/02 06:21:46;;;;;;;12.45;3.50;;;;;;;15.39;39.81;103161.81;4995540;28;20057;-77
2021/04/02 06:24:14;;;;;;;8.23;4.13;;;;;;;15.10;40.35;103161.75;4995587;28;20428;-75
2021/04/02 06:26:57;;;;;;;10.00;3.90;;;;;;;15.16;40.25;103166.13;4995316;28;20054;-75
2021/04/02 06:29:26;;;;;;;13.43;4.65;;;;;;;15.24;39.90;103162.75;4995213;28;20033;-76
2021/04/02 06:31:52;;;;;;;7.38;4.18;;;;;;;15.30;39.75;103166.31;4994054;28;20027;-76
2021/04/02 06:34:20;;;;;;;8.60;3.30;;;;;;;15.05;40.14;103177.50;4995315;28;20029;-76
2021/04/02 06:36:48;;;;;;;14.23;3.55;;;;;;;15.11;40.67;103168.06;4995311;28;20500;-75
2021/04/02 06:39:13;;;;;;;8.88;3.80;;;;;;;15.25;40.04;103185.59;4995402;28;20109;-76
2021/04/02 06:41:41;;;;;;;15.20;4.43;;;;;;;15.47;39.54;103176.91;4993298;28;20205;-76
2021/04/02 06:44:09;;;;;;;8.02;3.60;;;;;;;15.42;39.40;103183.31;4994912;28;20029;-76
2021/04/02 06:46:39;;;;;;;10.07;3.42;;;;;;;15.83;38.54;103177.47;4994866;28;20019;-76
2021/04/02 06:49:15;;;;;;;10.70;3.80;;;;;;;15.64;39.28;103182.03;4995848;28;20355;-81
2021/04/02 06:51:42;;;;;;;9.75;3.10;;;;;;;15.44;39.27;103197.59;4995227;28;20038;-77
2021/04/02 06:54:11;;;;;;;9.23;4.45;;;;;;;15.26;39.46;103206.53;4994804;28;20058;-78
2021/04/02 06:56:42;;;;;;;9.43;3.38;;;;;;;15.28;39.38;103201.59;4993729;28;20022;-83
2021/04/02 06:59:10;;;;;;;10.63;3.25;;;;;;;15.65;38.61;103206.59;4991772;28;20205;-77
2021/04/02 07:01:38;;;;;;;8.43;3.72;;;;;;;15.71;38.68;103199.06;4983371;28;20026;-77
2021/04/02 07:04:04;;;;;;;9.70;3.67;;;;;;;15.64;39.12;103213.22;4985447;28;20026;-76
2021/04/02 07:06:30;;;;;;;9.75;3.17;;;;;;;15.63;38.91;103213.47;4984067;28;20077;-77
2021/04/02 07:08:56;;;;;;;8.55;3.42;;;;;;;15.68;38.82;103216.19;4982280;28;20196;-77
2021/04/02 07:11:24;;;;;;;9.75;2.78;;;;;;;15.54;38.87;103214.06;4985270;28;20105;-77
2021/04/02 07:13:52;;;;;;;16.30;3.55;;;;;;;15.85;38.36;103202.81;4983208;28;20085;-77
2021/04/02 07:16:19;;;;;;;10.90;2.90;;;;;;;15.85;38.86;103211.09;4991149;28;20026;-76
2021/04/02 07:18:46;;;;;;;12.95;2.92;;;;;;;15.88;38.99;103221.56;5001627;28;20035;-76
2021/04/02 07:21:13;;;;;;;7.40;2.25;;;;;;;15.71;39.15;103215.63;4983281;28;20070;-78
2021/04/02 07:23:40;;;;;;;12.80;2.60;;;;;;;16.21;38.66;103222.63;4984435;28;20026;-83
2021/04/02 07:26:06;;;;;;;11.48;3.15;;;;;;;16.49;38.31;103218.19;4985205;28;20101;-79
2021/04/02 07:28:32;;;;;;;11.13;2.67;;;;;;;16.47;38.38;103233.38;4984094;28;20019;-76
2021/04/02 07:30:59;;;;;;;14.75;4.00;;;;;;;16.46;38.21;103223.47;4985724;28;20041;-77
2021/04/02 07:33:26;;;;;;;9.35;2.92;;;;;;;16.56;37.73;103218.66;4983673;28;20409;-78
2021/04/02 07:36:01;;;;;;;8.88;2.35;;;;;;;16.30;37.95;103236.59;4983856;28;20023;-76
2021/04/02 07:38:32;;;;;;;13.15;2.67;;;;;;;16.56;37.36;103229.69;4986771;28;20080;-76
2021/04/02 07:41:06;;;;;;;4.18;2.05;;;;;;;16.69;36.75;103236.47;4983772;28;20026;-78
2021/04/02 07:43:33;;;;;;;11.30;3.63;;;;;;;16.83;36.43;103240.16;4982056;28;20047;-77
2021/04/02 07:46:15;;;;;;;12.93;2.63;;;;;;;16.83;36.45;103247.63;4983299;28;20053;-76
2021/04/02 07:48:41;;;;;;;9.18;2.38;;;;;;;16.68;36.90;103233.97;4984447;28;20041;-77
2021/04/02 07:51:07;;;;;;;6.38;2.15;;;;;;;16.49;37.28;103237.50;4984545;28;20049;-76
2021/04/02 07:53:36;;;;;;;8.32;2.10;;;;;;;16.54;36.71;103242.94;4986372;28;20026;-77
2021/04/02 07:56:07;;;;;;;7.97;2.67;;;;;;;16.24;37.40;103251.53;4993568;28;20031;-79
2021/04/02 07:58:39;;;;;;;19.13;3.75;;;;;;;16.30;36.83;103244.88;4992249;28;20033;-79
2021/04/02 08:01:05;;;;;;;9.57;2.10;;;;;;;16.35;36.58;103250.34;4984717;28;20027;-79
2021/04/02 08:03:31;;;;;;;7.72;2.08;;;;;;;15.95;37.65;103249.63;4983146;28;20038;-84
2021/04/02 08:06:08;;;;;;;4.68;1.60;;;;;;;16.11;37.50;103255.00;4984003;28;20089;-84
2021/04/02 08:08:48;;;;;;;7.07;2.25;;;;;;;16.55;36.93;103249.28;4990591;28;20030;-78
2021/04/02 08:11:27;;;;;;;6.63;2.45;;;;;;;16.64;36.89;103251.13;4986773;28;20026;-79
2021/04/02 08:14:08;;;;;;;8.00;2.10;;;;;;;16.51;37.43;103253.78;4983774;28;20069;-79
2021/04/02 08:16:39;;;;;;;8.85;2.20;;;;;;;16.82;37.07;103252.34;4983875;28;20030;-78
2021/04/02 08:19:28;;;;;;;4.30;2.38;;;;;;;16.04;38.08;103272.69;4982908;28;20026;-75
2021/04/02 08:22:06;;;;;;;6.43;2.50;;;;;;;16.34;37.83;103273.53;4984185;28;20042;-77
2021/04/02 08:24:34;;;;;;;16.13;4.57;;;;;;;16.69;36.83;103269.59;4983790;28;20032;-77
2021/04/02 08:27:00;;;;;;;15.70;2.80;;;;;;;17.09;36.72;103268.31;4983820;28;20023;-78
2021/04/02 08:29:29;;;;;;;11.02;3.13;;;;;;;17.09;37.05;103273.00;4983372;28;20106;-78
2021/04/02 08:31:57;;;;;;;4.15;2.25;;;;;;;16.62;37.74;103280.97;4983231;28;20541;-79
2021/04/02 08:34:26;;;;;;;12.63;2.67;;;;;;;16.85;37.53;103267.47;4981557;28;20041;-79
2021/04/02 08:36:54;;;;;;;6.55;2.20;;;;;;;16.65;37.47;103279.56;4984402;28;20045;-78
2021/04/02 08:39:23;;;;;;;6.25;2.90;;;;;;;16.85;36.79;103278.53;4983702;28;20385;-80
2021/04/02 08:41:49;;;;;;;6.00;2.72;;;;;;;17.16;36.46;103284.53;4985292;28;20037;-84
2021/04/02 08:44:15;;;;;;;9.95;2.58;;;;;;;17.10;36.59;103300.31;4992043;28;20026;-83
2021/04/02 08:46:46;;;;;;;7.63;2.80;;;;;;;16.91;36.44;103288.41;4986396;28;20097;-82
2021/04/02 08:49:15;;;;;;;9.57;3.85;;;;;;;17.26;36.14;103291.84;4995751;28;20025;-77
2021/04/02 08:51:48;;;;;;;9.00;2.65;;;;;;;17.15;36.11;103299.41;5008145;28;20025;-84
2021/04/02 08:54:18;;;;;;;8.10;3.10;;;;;;;17.42;35.75;103294.09;5004324;28;20025;-81
2021/04/02 08:56:43;;;;;;;8.50;2.88;;;;;;;17.10;35.83;103305.03;5004618;28;20018;-83
2021/04/02 08:59:11;;;;;;;7.53;2.63;;;;;;;17.54;35.10;103295.59;4991082;28;20517;-77
2021/04/02 09:01:46;;;;;;;6.22;2.72;;;;;;;17.80;35.44;103298.84;4991717;28;20029;-80
2021/04/02 09:04:13;;;;;;;5.97;2.40;;;;;;;17.92;35.25;103307.50;4991121;28;20022;-83
2021/04/02 09:06:40;;;;;;;6.72;2.38;;;;;;;18.32;34.26;103306.00;4991337;28;20030;-77
2021/04/02 09:09:14;;;;;;;8.73;3.28;;;;;;;18.30;34.51;103302.72;5003313;28;21326;-81
2021/04/02 09:11:42;;;;;;;10.13;2.78;;;;;;;18.03;34.78;103303.44;4983631;28;20038;-75
2021/04/02 09:14:09;;;;;;;9.65;3.65;;;;;;;17.81;35.23;103306.00;4988981;28;20022;-76
2021/04/02 09:16:39;;;;;;;8.77;2.75;;;;;;;18.25;34.82;103306.38;4990449;28;20163;-76
2021/04/02 09:19:06;;;;;;;10.48;3.28;;;;;;;18.56;33.98;103300.28;4992860;28;20030;-75
2021/04/02 09:21:32;;;;;;;7.88;3.22;;;;;;;18.16;34.92;103310.97;4992755;28;20044;-77
2021/04/02 09:23:59;;;;;;;6.20;2.80;;;;;;;17.92;35.11;103304.75;4993810;28;20710;-78
2021/04/02 09:26:25;;;;;;;5.80;2.42;;;;;;;17.31;35.85;103319.41;4991944;28;20018;-74
2021/04/02 09:28:50;;;;;;;8.57;2.40;;;;;;;17.75;35.38;103310.78;4994560;28;20079;-75
2021/04/02 09:31:29;;;;;;;4.65;2.20;;;;;;;17.26;35.89;103312.00;4996792;28;20069;-83
2021/04/02 09:34:02;;;;;;;7.97;2.88;;;;;;;17.44;35.35;103318.66;4996145;28;20036;-75
2021/04/02 09:36:33;;;;;;;20.40;4.22;;;;;;;17.34;35.52;103324.34;4996321;28;20838;-75
2021/04/02 09:39:13;;;;;;;7.78;2.83;;;;;;;17.01;36.27;103338.00;4995745;28;20029;-81
2021/04/02 09:41:42;;;;;;;8.82;3.30;;;;;;;17.53;36.02;103324.34;4995779;28;20536;-78
2021/04/02 09:44:13;;;;;;;14.07;4.22;;;;;;;17.79;35.68;103333.16;4996962;28;20025;-76
2021/04/02 09:46:44;;;;;;;6.90;3.00;;;;;;;17.38;35.91;103331.75;4997458;28;20037;-76
2021/04/02 09:49:19;;;;;;;6.03;2.28;;;;;;;17.75;35.88;103335.66;4997377;28;20030;-76
2021/04/02 09:51:49;;;;;;;7.55;3.42;;;;;;;17.91;35.65;103323.28;4996926;28;20389;-79
2021/04/02 09:54:16;;;;;;;;;;;;;;;17.93;35.82;103336.81;4993215;28;20046;-85
2021/04/02 09:56:42;;;;;;;7.28;2.40;;;;;;;17.70;35.80;103349.56;4990267;28;20041;-83
2021/04/02 09:59:08;;;;;;;9.57;3.88;;;;;;;17.36;36.26;103339.50;4986657;28;20106;-76
2021/04/02 10:01:36;;;;;;;9.15;2.40;;;;;;;17.67;35.78;103339.06;4982493;28;20374;-80
2021/04/02 10:04:03;;;;;;;8.10;3.13;;;;;;;17.59;36.34;103348.88;4989496;28;20028;-75
2021/04/02 10:06:28;;;;;;;3.63;2.03;;;;;;;17.80;36.03;103354.97;4982226;28;20058;-78
2021/04/02 10:08:54;;;;;;;11.15;2.75;;;;;;;17.64;36.16;103348.81;4987432;28;20038;-75
2021/04/02 10:11:21;;;;;;;6.20;2.72;;;;;;;17.54;35.95;103343.41;4991125;28;20029;-83
2021/04/02 10:13:47;;;;;;;9.23;2.92;;;;;;;17.71;36.19;103356.75;4982132;28;20061;-88
2021/04/02 10:16:13;;;;;;;8.80;2.30;;;;;;;17.89;35.29;103361.47;4988846;28;20062;-75
2021/04/02 10:18:39;;;;;;;7.38;3.25;;;;;;;17.37;35.80;103370.72;4992460;28;20022;-75
2021/04/02 10:21:06;;;;;;;7.40;2.63;;;;;;;17.60;35.61;103363.50;4978193;28;20022;-77
2021/04/02 10:23:33;;;;;;;10.65;3.67;;;;;;;17.87;35.81;103368.41;4978508;28;20023;-82
2021/04/02 10:25:59;;;;;;;5.20;3.35;;;;;;;18.19;35.62;103374.00;4981750;28;20026;-76
2021/04/02 10:28:25;;;;;;;6.88;3.17;;;;;;;17.64;35.88;103375.63;4981545;28;20065;-85
2021/04/02 10:30:52;;;;;;;5.45;2.90;;;;;;;17.83;35.34;103370.13;4981495;28;20461;-75
2021/04/02 10:33:18;;;;;;;8.27;3.00;;;;;;;18.01;35.19;103378.44;4981376;28;20046;-75
2021/04/02 10:35:45;;;;;;;9.32;3.25;;;;;;;18.05;35.36;103380.59;4982418;28;20081;-76
2021/04/02 10:38:11;;;;;;;12.73;2.95;;;;;;;17.93;35.82;103373.59;4985095;28;20389;-75
2021/04/02 10:40:38;;;;;;;9.02;2.97;;;;;;;17.90;35.47;103371.41;4993831;28;20055;-74
2021/04/02 10:43:04;;;;;;;10.88;2.85;;;;;;;17.65;35.20;103372.56;4994622;28;20051;-74
2021/04/02 10:45:29;;;;;;;9.52;2.95;;;;;;;17.30;36.07;103390.41;4993247;28;20084;-75
2021/04/02 10:47:55;;;;;;;7.00;3.00;;;;;;;17.37;35.83;103387.28;4994567;28;20030;-75
2021/04/02 10:50:23;;;;;;;7.22;2.90;;;;;;;17.03;36.29;103391.00;4994787;28;20034;-74
2021/04/02 10:52:49;;;;;;;7.03;2.80;;;;;;;17.66;35.48;103384.44;4994578;28;20408;-81
2021/04/02 10:55:15;;;;;;;6.60;3.00;;;;;;;17.92;35.25;103385.78;4993410;28;20482;-75
2021/04/02 10:57:41;;;;;;;10.27;3.33;;;;;;;17.96;34.89;103378.50;4994820;28;20037;-76
2021/04/02 11:00:09;;;;;;;8.32;3.75;;;;;;;18.55;35.02;103382.53;4993396;28;20026;-75
2021/04/02 11:02:34;;;;;;;8.57;3.47;;;;;;;18.12;34.97;103394.88;4993227;28;20030;-77
2021/04/02 11:05:00;;;;;;;6.22;3.17;;;;;;;17.98;34.88;103384.56;4993478;28;20402;-76
2021/04/02 11:07:26;;;;;;;12.55;2.95;;;;;;;17.61;35.69;103384.53;4992909;28;20104;-76
2021/04/02 11:09:52;;;;;;;7.78;2.83;;;;;;;17.79;35.17;103375.44;4995286;28;20026;-77
2021/04/02 11:12:18;;;;;;;11.45;3.33;;;;;;;18.28;35.52;103377.72;4995641;28;20264;-76
2021/04/02 11:14:44;;;;;;;7.20;3.65;;;;;;;18.42;35.89;103382.50;4994144;28;20181;-76
2021/04/02 11:17:09;;;;;;;9.30;3.85;;;;;;;17.93;35.69;103375.53;4994629;28;20512;-76
2021/04/02 11:19:36;;;;;;;9.65;2.58;;;;;;;18.07;35.18;103379.19;4994959;28;20034;-76
2021/04/02 11:22:02;;;;;;;12.45;2.85;;;;;;;18.24;35.16;103373.94;4995223;28;20042;-77
2021/04/02 11:24:29;;;;;;;11.80;4.10;;;;;;;18.12;35.76;103378.28;4994670;28;20061;-76
2021/04/02 11:26:54;;;;;;;7.97;2.58;;;;;;;18.48;35.26;103389.59;4994962;28;20049;-76